createdAt,value
2023-01-13T00:00:58.342Z,10.57
2023-01-13T00:02:20.217Z,9.07
2023-01-13T00:03:42.137Z,9.40
2023-01-13T00:05:03.933Z,8.68
2023-01-13T00:06:26.529Z,9.18
2023-01-13T00:07:49.582Z,8.57
2023-01-13T00:09:11.160Z,8.20
2023-01-13T00:10:34.662Z,7.72
2023-01-13T00:11:56.651Z,7.63
2023-01-13T00:13:26.511Z,7.55
2023-01-13T00:14:48.426Z,8.20
2023-01-13T00:16:15.739Z,8.45
2023-01-13T00:17:38.893Z,7.55
2023-01-13T00:19:00.897Z,7.47
2023-01-13T00:20:22.804Z,7.07
2023-01-13T00:21:44.693Z,7.22
2023-01-13T00:23:06.613Z,6.45
2023-01-13T00:24:28.539Z,7.55
2023-01-13T00:25:50.192Z,7.20
2023-01-13T00:27:12.140Z,7.00
2023-01-13T00:28:34.054Z,6.90
2023-01-13T00:29:55.744Z,6.93
2023-01-13T00:31:20.476Z,7.15
2023-01-13T00:32:42.136Z,6.50
2023-01-13T00:34:04.432Z,7.05
2023-01-13T00:35:26.202Z,7.00
2023-01-13T00:36:48.037Z,7.18
2023-01-13T00:38:10.012Z,6.35
2023-01-13T00:39:31.849Z,6.40
2023-01-13T00:41:01.922Z,6.28
2023-01-13T00:42:42.107Z,5.93
2023-01-13T00:44:03.896Z,5.50
2023-01-13T00:45:25.944Z,6.75
2023-01-13T00:46:47.879Z,6.47
2023-01-13T00:48:09.983Z,7.38
2023-01-13T00:49:31.492Z,7.20
2023-01-13T00:51:04.842Z,7.03
2023-01-13T00:52:27.185Z,7.15
2023-01-13T00:53:51.103Z,7.00
2023-01-13T00:55:12.743Z,7.43
2023-01-13T00:56:40.178Z,7.93
2023-01-13T00:58:05.265Z,7.25
2023-01-13T00:59:26.816Z,7.15
2023-01-13T01:00:48.710Z,7.50
2023-01-13T01:02:11.795Z,7.85
2023-01-13T01:03:33.712Z,6.70
2023-01-13T01:04:55.447Z,6.45
2023-01-13T01:06:20.935Z,7.35
2023-01-13T01:07:42.774Z,6.72
2023-01-13T01:09:05.811Z,7.25
2023-01-13T01:10:27.944Z,6.95
2023-01-13T01:11:49.369Z,6.95
2023-01-13T01:13:14.763Z,7.47
2023-01-13T01:14:36.749Z,8.13
2023-01-13T01:15:58.838Z,7.53
2023-01-13T01:17:20.437Z,8.27
2023-01-13T01:18:45.056Z,8.65
2023-01-13T01:20:07.172Z,8.55
2023-01-13T01:21:29.748Z,8.25
2023-01-13T01:22:51.340Z,8.82
2023-01-13T01:24:13.252Z,9.63
2023-01-13T01:25:35.281Z,9.40
2023-01-13T01:26:57.185Z,8.85
2023-01-13T01:28:20.661Z,9.10
2023-01-13T01:29:42.327Z,8.73
2023-01-13T01:31:09.755Z,7.97
2023-01-13T01:32:33.499Z,7.78
2023-01-13T01:33:55.991Z,9.40
2023-01-13T01:35:17.680Z,9.00
2023-01-13T01:36:40.356Z,9.00
2023-01-13T01:38:02.251Z,8.90
2023-01-13T01:39:23.837Z,8.52
2023-01-13T01:40:45.667Z,9.00
2023-01-13T01:42:32.073Z,8.77
2023-01-13T01:44:07.337Z,8.80
2023-01-13T01:45:31.340Z,9.48
2023-01-13T01:46:53.299Z,9.57
2023-01-13T01:48:15.191Z,8.82
2023-01-13T01:49:42.447Z,10.13
2023-01-13T01:51:07.762Z,9.40
2023-01-13T01:52:44.390Z,9.02
2023-01-13T01:54:09.471Z,8.75
2023-01-13T01:55:36.925Z,8.75
2023-01-13T01:56:59.403Z,8.00
2023-01-13T01:58:38.356Z,8.38
2023-01-13T02:00:01.285Z,8.15
2023-01-13T02:01:34.566Z,7.95
2023-01-13T02:02:57.416Z,7.32
2023-01-13T02:04:25.134Z,7.72
2023-01-13T02:05:46.779Z,7.82
2023-01-13T02:07:09.212Z,8.07
2023-01-13T02:08:31.076Z,8.50
2023-01-13T02:09:55.460Z,8.90
2023-01-13T02:11:55.241Z,8.18
2023-01-13T02:13:17.454Z,8.07
2023-01-13T02:14:41.142Z,7.88
2023-01-13T02:16:22.226Z,7.70
2023-01-13T02:17:55.344Z,7.78
2023-01-13T02:19:36.935Z,7.90
2023-01-13T02:21:13.927Z,6.53
2023-01-13T02:23:32.275Z,7.15
2023-01-13T02:25:12.350Z,8.52
2023-01-13T02:26:52.634Z,8.02
2023-01-13T02:29:17.513Z,7.47
2023-01-13T02:31:14.801Z,7.75
2023-01-13T02:32:58.574Z,7.72
2023-01-13T02:34:25.433Z,7.05
2023-01-13T02:35:56.853Z,6.80
2023-01-13T02:37:33.339Z,8.63
2023-01-13T02:39:12.167Z,8.80
2023-01-13T02:40:37.939Z,8.95
2023-01-13T02:42:43.765Z,8.55
2023-01-13T02:44:07.754Z,7.82
2023-01-13T02:45:52.054Z,8.48
2023-01-13T02:47:24.556Z,9.02
2023-01-13T02:48:48.852Z,7.57
2023-01-13T02:50:17.509Z,6.75
2023-01-13T02:51:44.363Z,7.70
2023-01-13T02:53:22.357Z,7.07
2023-01-13T02:54:49.119Z,6.80
2023-01-13T02:56:14.409Z,7.55
2023-01-13T02:57:38.028Z,6.93
2023-01-13T02:59:00.701Z,7.82
2023-01-13T03:00:23.804Z,7.55
2023-01-13T03:01:47.734Z,8.13
2023-01-13T03:03:09.319Z,8.27
2023-01-13T03:04:53.244Z,8.20
2023-01-13T03:06:23.696Z,8.07
2023-01-13T03:08:18.442Z,8.00
2023-01-13T03:09:53.502Z,7.82
2023-01-13T03:11:19.109Z,6.95
2023-01-13T03:13:11.404Z,7.10
2023-01-13T03:14:44.020Z,6.78
2023-01-13T03:16:40.791Z,6.82
2023-01-13T03:18:12.695Z,6.93
2023-01-13T03:19:46.744Z,7.75
2023-01-13T03:21:36.517Z,9.20
2023-01-13T03:23:13.205Z,11.18
2023-01-13T03:25:00.565Z,10.35
2023-01-13T03:26:38.511Z,9.73
2023-01-13T03:28:05.913Z,10.18
2023-01-13T03:29:35.986Z,8.20
2023-01-13T03:32:25.448Z,8.52
2023-01-13T03:34:04.932Z,9.13
2023-01-13T03:35:30.798Z,8.82
2023-01-13T03:36:55.632Z,8.30
2023-01-13T03:38:32.290Z,8.15
2023-01-13T03:40:01.118Z,8.77
2023-01-13T03:41:59.997Z,8.88
2023-01-13T03:43:47.765Z,8.45
2023-01-13T03:45:18.251Z,8.32
2023-01-13T03:46:53.095Z,7.32
2023-01-13T03:48:19.857Z,8.25
2023-01-13T03:50:08.161Z,7.80
2023-01-13T03:51:33.044Z,8.02
2023-01-13T03:53:24.124Z,7.28
2023-01-13T03:54:51.674Z,7.72
2023-01-13T03:56:24.092Z,7.97
2023-01-13T03:58:06.904Z,7.47
2023-01-13T03:59:35.763Z,8.50
2023-01-13T04:01:19.156Z,7.57
2023-01-13T04:02:56.753Z,7.90
2023-01-13T04:04:34.897Z,8.30
2023-01-13T04:06:09.010Z,8.68
2023-01-13T04:07:55.813Z,8.93
2023-01-13T04:09:50.983Z,7.97
2023-01-13T04:11:22.588Z,7.35
2023-01-13T04:13:07.826Z,7.93
2023-01-13T04:14:30.601Z,9.32
2023-01-13T04:15:52.695Z,9.43
2023-01-13T04:17:15.645Z,10.15
2023-01-13T04:18:39.377Z,9.10
2023-01-13T04:20:01.387Z,8.82
2023-01-13T04:21:23.311Z,8.73
2023-01-13T04:22:45.403Z,8.27
2023-01-13T04:24:08.349Z,8.82
2023-01-13T04:25:30.346Z,9.52
2023-01-13T04:26:52.481Z,8.73
2023-01-13T04:28:14.679Z,9.48
2023-01-13T04:29:36.444Z,9.70
2023-01-13T04:30:58.497Z,10.70
2023-01-13T04:32:20.400Z,10.00
2023-01-13T04:33:42.486Z,8.95
2023-01-13T04:35:04.465Z,8.57
2023-01-13T04:36:27.766Z,8.25
2023-01-13T04:37:49.474Z,10.13
2023-01-13T04:39:11.296Z,12.15
2023-01-13T04:40:33.244Z,11.75
2023-01-13T04:41:57.973Z,11.98
2023-01-13T04:43:19.601Z,12.50
2023-01-13T04:44:41.312Z,13.23
2023-01-13T04:46:02.824Z,15.07
2023-01-13T04:47:25.033Z,15.00
2023-01-13T04:48:46.870Z,13.85
2023-01-13T04:50:10.157Z,13.98
2023-01-13T04:51:31.869Z,20.70
2023-01-13T04:52:54.513Z,19.65
2023-01-13T04:54:16.339Z,19.52
2023-01-13T04:55:37.928Z,21.15
2023-01-13T04:56:59.798Z,20.30
2023-01-13T04:58:22.523Z,18.55
2023-01-13T04:59:44.132Z,17.65
2023-01-13T05:01:06.100Z,15.13
2023-01-13T05:02:28.093Z,13.80
2023-01-13T05:03:50.185Z,14.30
2023-01-13T05:05:12.204Z,14.68
2023-01-13T05:06:34.327Z,14.32
2023-01-13T05:07:57.509Z,16.08
2023-01-13T05:09:19.224Z,17.95
2023-01-13T05:10:40.933Z,17.42
2023-01-13T05:12:20.889Z,19.17
2023-01-13T05:14:01.072Z,20.58
2023-01-13T05:15:41.633Z,21.35
2023-01-13T05:17:03.739Z,27.60
2023-01-13T05:18:26.076Z,28.10
2023-01-13T05:19:48.070Z,26.65
2023-01-13T05:21:30.141Z,25.60
2023-01-13T05:23:10.424Z,26.90
2023-01-13T05:26:12.642Z,36.80
2023-01-13T05:27:34.899Z,39.08
2023-01-13T05:28:56.396Z,36.15
2023-01-13T05:30:20.280Z,35.97
2023-01-13T05:31:42.280Z,34.88
2023-01-13T05:33:05.093Z,36.17
2023-01-13T05:34:27.062Z,40.47
2023-01-13T05:35:49.746Z,41.42
2023-01-13T05:37:13.236Z,38.72
2023-01-13T05:38:34.940Z,36.25
2023-01-13T05:40:15.509Z,36.63
2023-01-13T05:41:55.821Z,38.13
2023-01-13T05:43:19.883Z,43.72
2023-01-13T05:44:41.554Z,45.83
2023-01-13T05:46:06.978Z,45.65
2023-01-13T05:47:28.700Z,41.00
2023-01-13T05:48:50.781Z,33.75
2023-01-13T05:50:12.709Z,27.52
2023-01-13T05:51:34.567Z,25.10
2023-01-13T05:52:56.409Z,23.02
2023-01-13T05:54:17.898Z,23.20
2023-01-13T05:55:41.707Z,43.28
2023-01-13T05:57:03.568Z,42.17
2023-01-13T05:58:27.321Z,37.92
2023-01-13T05:59:49.131Z,38.78
2023-01-13T06:01:10.932Z,39.47
2023-01-13T06:02:32.620Z,38.92
2023-01-13T06:03:54.650Z,44.00
2023-01-13T06:05:16.655Z,43.45
2023-01-13T06:06:38.718Z,42.95
2023-01-13T06:08:01.806Z,36.80
2023-01-13T06:09:23.855Z,40.22
2023-01-13T06:10:45.674Z,52.05
2023-01-13T06:12:07.510Z,56.42
2023-01-13T06:13:29.390Z,44.10
2023-01-13T06:14:51.385Z,41.40
2023-01-13T06:16:13.316Z,38.38
2023-01-13T06:17:37.389Z,39.80
2023-01-13T06:18:59.009Z,44.03
2023-01-13T06:20:21.029Z,51.00
2023-01-13T06:21:46.055Z,45.92
2023-01-13T06:23:10.984Z,53.60
2023-01-13T06:24:32.984Z,46.70
2023-01-13T06:26:14.796Z,42.25
2023-01-13T06:27:36.480Z,45.13
2023-01-13T06:28:58.401Z,40.85
2023-01-13T06:30:20.445Z,39.85
2023-01-13T06:31:42.126Z,44.67
2023-01-13T06:33:06.797Z,40.85
2023-01-13T06:34:29.315Z,39.45
2023-01-13T06:35:56.975Z,38.85
2023-01-13T06:37:23.464Z,35.55
2023-01-13T06:38:50.623Z,32.20
2023-01-13T06:40:14.164Z,29.52
2023-01-13T06:41:54.330Z,27.58
2023-01-13T06:43:16.920Z,27.23
2023-01-13T06:44:39.237Z,25.55
2023-01-13T06:46:02.636Z,26.02
2023-01-13T06:47:24.436Z,25.85
2023-01-13T06:48:46.121Z,25.27
2023-01-13T06:50:08.435Z,30.08
2023-01-13T06:51:30.041Z,36.35
2023-01-13T06:52:51.915Z,67.18
2023-01-13T06:54:13.912Z,55.40
2023-01-13T06:55:36.006Z,45.95
2023-01-13T06:56:57.919Z,45.47
2023-01-13T06:58:19.956Z,50.28
2023-01-13T06:59:41.772Z,48.38
2023-01-13T07:01:03.807Z,53.30
2023-01-13T07:02:26.039Z,40.88
2023-01-13T07:03:48.260Z,41.42
2023-01-13T07:05:10.165Z,38.50
2023-01-13T07:06:31.874Z,37.53
2023-01-13T07:07:53.729Z,36.85
2023-01-13T07:09:15.592Z,47.05
2023-01-13T07:10:38.178Z,146.65
2023-01-13T07:11:59.918Z,32.53
2023-01-13T07:13:40.700Z,44.75
2023-01-13T07:15:20.454Z,55.63
2023-01-13T07:16:44.509Z,47.65
2023-01-13T07:18:06.518Z,57.72
2023-01-13T07:19:28.619Z,72.32
2023-01-13T07:21:01.516Z,69.60
2023-01-13T07:22:24.596Z,58.53
2023-01-13T07:23:46.697Z,67.90
2023-01-13T07:25:09.239Z,69.40
2023-01-13T07:26:31.256Z,97.93
2023-01-13T07:27:52.817Z,44.78
2023-01-13T07:29:14.316Z,39.25
2023-01-13T07:30:36.020Z,38.03
2023-01-13T07:31:57.919Z,41.40
2023-01-13T07:33:20.306Z,40.97
2023-01-13T07:34:42.201Z,40.88
2023-01-13T07:36:05.786Z,40.20
2023-01-13T07:37:27.792Z,40.33
2023-01-13T07:38:49.555Z,42.85
2023-01-13T07:40:12.640Z,45.08
2023-01-13T07:41:52.944Z,45.78
2023-01-13T07:43:32.895Z,43.25
2023-01-13T07:46:16.303Z,42.60
2023-01-13T07:47:38.386Z,43.13
2023-01-13T07:49:00.112Z,44.33
2023-01-13T07:50:23.759Z,57.80
2023-01-13T07:51:45.315Z,61.17
2023-01-13T07:53:07.284Z,56.22
2023-01-13T07:54:40.270Z,47.75
2023-01-13T07:56:05.392Z,36.63
2023-01-13T07:57:27.305Z,58.40
2023-01-13T07:58:51.125Z,39.33
2023-01-13T08:00:13.258Z,27.70
2023-01-13T08:01:35.068Z,26.63
2023-01-13T08:02:59.789Z,25.90
2023-01-13T08:04:22.195Z,26.02
2023-01-13T08:05:43.786Z,29.70
2023-01-13T08:07:06.583Z,72.45
2023-01-13T08:08:28.132Z,57.70
2023-01-13T08:09:50.594Z,33.53
2023-01-13T08:11:12.553Z,30.25
2023-01-13T08:12:54.546Z,29.67
2023-01-13T08:14:18.790Z,44.10
2023-01-13T08:15:40.761Z,36.67
2023-01-13T08:17:02.642Z,35.53
2023-01-13T08:18:24.644Z,39.45
2023-01-13T08:19:46.193Z,31.48
2023-01-13T08:21:13.290Z,31.15
2023-01-13T08:22:34.870Z,35.35
2023-01-13T08:23:56.642Z,37.63
2023-01-13T08:25:18.692Z,41.75
2023-01-13T08:26:40.389Z,36.63
2023-01-13T08:28:02.200Z,35.72
2023-01-13T08:29:23.837Z,42.63
2023-01-13T08:30:45.942Z,30.20
2023-01-13T08:32:07.784Z,40.80
2023-01-13T08:33:30.137Z,34.83
2023-01-13T08:34:51.832Z,28.05
2023-01-13T08:36:14.065Z,27.45
2023-01-13T08:37:36.375Z,25.98
2023-01-13T08:38:57.993Z,25.98
2023-01-13T08:40:21.711Z,25.05
2023-01-13T08:41:56.329Z,27.58
2023-01-13T08:43:18.135Z,28.80
2023-01-13T08:44:40.110Z,30.58
2023-01-13T08:46:04.706Z,30.10
2023-01-13T08:47:28.525Z,31.73
2023-01-13T08:48:50.284Z,21.42
2023-01-13T08:50:12.609Z,22.67
2023-01-13T08:51:34.959Z,23.85
2023-01-13T08:52:57.285Z,19.50
2023-01-13T08:54:19.853Z,20.20
2023-01-13T08:55:41.731Z,22.67
2023-01-13T08:57:03.635Z,22.70
2023-01-13T08:58:25.412Z,21.27
2023-01-13T08:59:48.064Z,20.25
2023-01-13T09:01:18.368Z,23.73
2023-01-13T09:02:40.470Z,22.77
2023-01-13T09:04:02.108Z,21.45
2023-01-13T09:05:24.349Z,23.38
2023-01-13T09:06:46.620Z,24.00
2023-01-13T09:08:08.500Z,24.05
2023-01-13T09:09:30.448Z,21.73
2023-01-13T09:10:52.274Z,17.92
2023-01-13T09:12:34.106Z,16.45
2023-01-13T09:13:55.752Z,13.65
2023-01-13T09:15:18.622Z,14.15
2023-01-13T09:16:40.689Z,13.07
2023-01-13T09:18:02.754Z,13.60
2023-01-13T09:19:24.728Z,13.30
2023-01-13T09:20:46.460Z,19.23
2023-01-13T09:22:13.882Z,20.27
2023-01-13T09:23:35.830Z,22.23
2023-01-13T09:24:57.997Z,16.98
2023-01-13T09:26:21.745Z,17.45
2023-01-13T09:27:43.806Z,18.42
2023-01-13T09:29:06.347Z,18.45
2023-01-13T09:30:28.202Z,21.23
2023-01-13T09:31:50.255Z,24.90
2023-01-13T09:33:30.474Z,22.48
2023-01-13T09:35:01.333Z,29.75
2023-01-13T09:36:23.384Z,35.92
2023-01-13T09:37:45.310Z,59.85
2023-01-13T09:39:07.375Z,138.35
2023-01-13T09:40:29.101Z,234.20
2023-01-13T09:42:12.172Z,200.75
2023-01-13T09:43:55.872Z,334.50
2023-01-13T09:45:25.915Z,91.38
2023-01-13T09:46:53.080Z,218.60
2023-01-13T09:48:29.893Z,176.55
2023-01-13T09:49:52.109Z,87.55
2023-01-13T09:51:24.536Z,83.47
2023-01-13T09:52:46.696Z,497.38
2023-01-13T09:54:22.811Z,252.32
2023-01-13T09:55:45.651Z,254.70
2023-01-13T09:57:15.331Z,368.90
2023-01-13T09:58:37.365Z,295.60
2023-01-13T09:59:59.910Z,167.70
2023-01-13T10:01:54.218Z,121.32
2023-01-13T10:03:22.163Z,268.13
2023-01-13T10:04:43.837Z,331.75
2023-01-13T10:06:06.907Z,34.00
2023-01-13T10:07:33.247Z,25.20
2023-01-13T10:08:56.048Z,397.85
2023-01-13T10:10:44.020Z,257.67
2023-01-13T10:12:33.484Z,391.55
2023-01-13T10:14:24.122Z,190.93
2023-01-13T10:16:10.486Z,118.15
2023-01-13T10:17:45.895Z,192.15
2023-01-13T10:19:13.167Z,96.68
2023-01-13T10:20:52.682Z,55.90
2023-01-13T10:23:50.063Z,41.72
2023-01-13T10:25:30.418Z,63.92
2023-01-13T10:27:12.720Z,99.35
2023-01-13T10:28:34.627Z,44.35
2023-01-13T10:29:56.554Z,63.20
2023-01-13T10:31:19.664Z,162.88
2023-01-13T10:32:47.541Z,30.50
2023-01-13T10:34:09.231Z,29.75
2023-01-13T10:35:55.283Z,112.55
2023-01-13T10:37:35.551Z,23.88
2023-01-13T10:39:09.341Z,65.80
2023-01-13T10:40:31.247Z,30.08
2023-01-13T10:42:04.661Z,54.92
2023-01-13T10:43:27.853Z,33.67
2023-01-13T10:44:52.096Z,23.88
2023-01-13T10:46:16.499Z,29.98
2023-01-13T10:47:38.108Z,28.13
2023-01-13T10:49:02.123Z,34.55
2023-01-13T10:50:29.801Z,27.67
2023-01-13T10:51:51.489Z,24.70
2023-01-13T10:53:24.668Z,26.05
2023-01-13T10:54:52.926Z,23.08
2023-01-13T10:56:19.870Z,23.75
2023-01-13T10:57:41.955Z,22.77
2023-01-13T10:59:15.910Z,23.17
2023-01-13T11:00:37.696Z,22.75
2023-01-13T11:02:13.054Z,21.67
2023-01-13T11:03:47.584Z,24.75
2023-01-13T11:05:21.143Z,23.95
2023-01-13T11:06:47.401Z,25.35
2023-01-13T11:08:18.777Z,23.52
2023-01-13T11:09:41.055Z,25.17
2023-01-13T11:11:02.873Z,21.98
2023-01-13T11:12:33.296Z,22.75
2023-01-13T11:14:20.711Z,23.17
2023-01-13T11:16:01.745Z,26.35
2023-01-13T11:17:32.470Z,25.85
2023-01-13T11:19:14.201Z,23.55
2023-01-13T11:20:41.238Z,17.10
2023-01-13T11:22:15.844Z,20.50
2023-01-13T11:23:47.397Z,18.60
2023-01-13T11:25:52.522Z,16.15
2023-01-13T11:27:35.346Z,12.15
2023-01-13T11:29:18.798Z,12.38
2023-01-13T11:30:50.791Z,13.18
2023-01-13T11:32:20.147Z,11.25
2023-01-13T11:34:18.516Z,11.13
2023-01-13T11:35:58.631Z,12.50
2023-01-13T11:37:30.536Z,12.95
2023-01-13T11:38:52.425Z,12.00
2023-01-13T11:40:39.758Z,11.75
2023-01-13T11:42:21.009Z,10.90
2023-01-13T11:44:18.549Z,10.32
2023-01-13T11:45:48.068Z,11.82
2023-01-13T11:47:12.039Z,11.32
2023-01-13T11:48:41.268Z,11.85
2023-01-13T11:50:04.214Z,11.07
2023-01-13T11:51:40.715Z,12.55
2023-01-13T11:53:24.329Z,11.25
2023-01-13T11:54:55.249Z,10.98
2023-01-13T11:56:43.440Z,11.20
2023-01-13T11:58:23.626Z,12.13
2023-01-13T12:00:09.737Z,12.23
2023-01-13T12:01:43.458Z,11.32
2023-01-13T12:03:33.703Z,11.52
2023-01-13T12:05:14.026Z,10.73
2023-01-13T12:06:38.702Z,10.50
2023-01-13T12:08:18.276Z,9.40
2023-01-13T12:09:51.172Z,12.43
2023-01-13T12:11:33.336Z,10.85
2023-01-13T12:13:35.516Z,12.23
2023-01-13T12:15:27.009Z,11.88
2023-01-13T12:16:51.882Z,15.57
2023-01-13T12:18:43.247Z,14.90
2023-01-13T12:20:22.578Z,13.00
2023-01-13T12:22:09.296Z,11.27
2023-01-13T12:23:34.010Z,11.20
2023-01-13T12:25:04.783Z,9.80
2023-01-13T12:26:29.949Z,11.38
2023-01-13T12:28:03.133Z,10.63
2023-01-13T12:29:34.374Z,11.05
2023-01-13T12:31:01.598Z,11.75
2023-01-13T12:32:38.548Z,11.25
2023-01-13T12:34:03.097Z,12.68
2023-01-13T12:35:37.789Z,12.88
2023-01-13T12:37:27.517Z,11.15
2023-01-13T12:39:16.372Z,11.65
2023-01-13T12:40:55.172Z,12.45
2023-01-13T12:42:56.623Z,13.70
2023-01-13T12:44:18.405Z,21.45
2023-01-13T12:45:40.360Z,17.23
2023-01-13T12:47:02.124Z,16.48
2023-01-13T12:48:56.674Z,14.60
2023-01-13T12:50:27.446Z,15.57
2023-01-13T12:51:51.808Z,16.40
2023-01-13T12:53:35.331Z,15.65
2023-01-13T12:54:57.179Z,15.73
2023-01-13T12:56:26.400Z,21.08
2023-01-13T12:58:03.341Z,17.17
2023-01-13T12:59:25.377Z,16.08
2023-01-13T13:00:49.062Z,16.63
2023-01-13T13:02:11.296Z,16.52
2023-01-13T13:03:38.584Z,16.30
2023-01-13T13:05:16.258Z,15.35
2023-01-13T13:06:45.159Z,15.82
2023-01-13T13:08:32.426Z,16.52
2023-01-13T13:10:02.523Z,17.35
2023-01-13T13:11:55.143Z,22.75
2023-01-13T13:13:48.552Z,22.55
2023-01-13T13:15:20.468Z,17.60
2023-01-13T13:16:53.007Z,16.20
2023-01-13T13:18:18.130Z,15.63
2023-01-13T13:19:43.156Z,17.23
2023-01-13T13:21:09.492Z,16.50
2023-01-13T13:22:43.033Z,15.65
2023-01-13T13:24:10.478Z,13.80
2023-01-13T13:25:32.277Z,18.65
2023-01-13T13:26:54.049Z,28.63
2023-01-13T13:28:19.133Z,22.85
2023-01-13T13:29:57.633Z,23.05
2023-01-13T13:31:50.664Z,17.63
2023-01-13T13:33:30.604Z,18.63
2023-01-13T13:34:52.131Z,15.93
2023-01-13T13:36:44.576Z,19.58
2023-01-13T13:38:36.970Z,18.00
2023-01-13T13:40:20.575Z,15.32
2023-01-13T13:42:05.519Z,16.48
2023-01-13T13:44:01.410Z,17.50
2023-01-13T13:45:44.252Z,13.73
2023-01-13T13:47:07.329Z,15.43
2023-01-13T13:48:31.082Z,16.63
2023-01-13T13:49:56.941Z,17.55
2023-01-13T13:51:31.295Z,16.83
2023-01-13T13:53:01.271Z,17.95
2023-01-13T13:54:23.643Z,20.27
2023-01-13T13:56:02.086Z,16.90
2023-01-13T13:57:30.833Z,17.10
2023-01-13T13:58:53.493Z,16.73
2023-01-13T14:00:23.653Z,15.15
2023-01-13T14:01:50.370Z,15.32
2023-01-13T14:03:40.171Z,17.70
2023-01-13T14:05:30.171Z,17.05
2023-01-13T14:06:57.072Z,16.08
2023-01-13T14:08:19.059Z,20.95
2023-01-13T14:09:44.603Z,28.08
2023-01-13T14:11:30.903Z,24.55
2023-01-13T14:12:53.203Z,31.05
2023-01-13T14:14:17.346Z,33.67
2023-01-13T14:15:39.961Z,22.23
2023-01-13T14:17:04.242Z,29.05
2023-01-13T14:18:27.950Z,29.80
2023-01-13T14:20:05.572Z,25.10
2023-01-13T14:21:29.885Z,25.55
2023-01-13T14:22:53.834Z,22.65
2023-01-13T14:24:17.688Z,19.50
2023-01-13T14:25:48.244Z,22.40
2023-01-13T14:27:15.221Z,21.73
2023-01-13T14:28:39.622Z,24.02
2023-01-13T14:30:02.165Z,26.73
2023-01-13T14:31:25.004Z,29.50
2023-01-13T14:32:47.132Z,27.55
2023-01-13T14:34:32.357Z,27.42
2023-01-13T14:36:08.252Z,24.63
2023-01-13T14:37:33.306Z,22.20
2023-01-13T14:39:04.076Z,23.15
2023-01-13T14:40:36.252Z,18.50
2023-01-13T14:41:57.907Z,19.83
2023-01-13T14:43:24.633Z,21.33
2023-01-13T14:44:49.736Z,21.40
2023-01-13T14:46:11.995Z,21.13
2023-01-13T14:47:34.157Z,20.98
2023-01-13T14:49:01.949Z,21.20
2023-01-13T14:50:31.422Z,21.65
2023-01-13T14:51:54.092Z,20.70
2023-01-13T14:53:30.842Z,20.70
2023-01-13T14:54:53.836Z,21.20
2023-01-13T14:56:38.514Z,20.27
2023-01-13T14:58:22.296Z,18.17
2023-01-13T15:00:04.114Z,26.98
2023-01-13T15:01:39.539Z,23.70
2023-01-13T15:03:08.020Z,24.33
2023-01-13T15:04:38.961Z,25.13
2023-01-13T15:06:00.699Z,30.25
2023-01-13T15:07:30.224Z,34.60
2023-01-13T15:08:52.251Z,38.15
2023-01-13T15:10:19.655Z,32.00
2023-01-13T15:11:41.348Z,29.10
2023-01-13T15:13:06.468Z,32.53
2023-01-13T15:14:34.859Z,30.33
2023-01-13T15:16:00.236Z,32.88
2023-01-13T15:17:21.808Z,28.13
2023-01-13T15:18:44.115Z,26.80
2023-01-13T15:20:14.420Z,25.27
2023-01-13T15:23:01.373Z,23.30
2023-01-13T15:24:23.186Z,23.33
2023-01-13T15:25:46.045Z,22.50
2023-01-13T15:27:25.495Z,22.90
2023-01-13T15:28:47.959Z,23.90
2023-01-13T15:30:17.103Z,25.33
2023-01-13T15:31:38.920Z,23.80
2023-01-13T15:33:01.001Z,26.63
2023-01-13T15:34:22.563Z,29.08
2023-01-13T15:35:49.679Z,28.58
2023-01-13T15:37:11.750Z,32.22
2023-01-13T15:38:33.535Z,34.00
2023-01-13T15:39:55.495Z,32.67
2023-01-13T15:41:17.766Z,33.88
2023-01-13T15:42:57.739Z,31.95
2023-01-13T15:44:37.767Z,35.78
2023-01-13T15:46:19.113Z,33.13
2023-01-13T15:47:41.261Z,67.15
2023-01-13T15:49:16.707Z,66.90
2023-01-13T15:50:41.512Z,50.58
2023-01-13T15:52:05.771Z,54.92
2023-01-13T15:53:27.417Z,61.50
2023-01-13T15:54:53.160Z,56.35
2023-01-13T15:56:26.637Z,44.17
2023-01-13T15:57:50.796Z,39.42
2023-01-13T15:59:22.374Z,43.33
2023-01-13T16:00:44.296Z,40.50
2023-01-13T16:02:12.860Z,37.08
2023-01-13T16:03:34.517Z,49.03
2023-01-13T16:04:57.039Z,42.45
2023-01-13T16:06:28.058Z,49.30
2023-01-13T16:07:50.093Z,52.45
2023-01-13T16:09:14.416Z,50.38
2023-01-13T16:10:36.565Z,52.35
2023-01-13T16:11:58.488Z,50.58
2023-01-13T16:13:20.507Z,45.80
2023-01-13T16:14:42.603Z,44.83
2023-01-13T16:16:13.276Z,46.42
2023-01-13T16:17:36.402Z,43.35
2023-01-13T16:18:58.400Z,40.83
2023-01-13T16:20:20.416Z,38.67
2023-01-13T16:21:42.340Z,37.95
2023-01-13T16:23:04.593Z,40.58
2023-01-13T16:24:26.662Z,40.42
2023-01-13T16:25:48.778Z,37.33
2023-01-13T16:27:20.620Z,39.83
2023-01-13T16:28:42.355Z,39.25
2023-01-13T16:30:04.576Z,39.53
2023-01-13T16:31:32.362Z,36.63
2023-01-13T16:32:55.149Z,39.38
2023-01-13T16:34:18.134Z,34.90
2023-01-13T16:35:44.004Z,29.77
2023-01-13T16:37:27.237Z,28.58
2023-01-13T16:38:51.256Z,31.13
2023-01-13T16:40:23.678Z,29.45
2023-01-13T16:41:45.222Z,31.58
2023-01-13T16:43:07.145Z,36.85
2023-01-13T16:44:29.289Z,35.90
2023-01-13T16:45:50.888Z,35.08
2023-01-13T16:47:17.136Z,31.98
2023-01-13T16:48:39.150Z,32.55
2023-01-13T16:50:01.163Z,36.28
2023-01-13T16:51:24.053Z,39.30
2023-01-13T16:52:45.721Z,35.70
2023-01-13T16:54:07.954Z,34.95
2023-01-13T16:55:30.108Z,36.75
2023-01-13T16:56:51.712Z,38.70
2023-01-13T16:58:19.324Z,42.03
2023-01-13T16:59:41.383Z,40.33
2023-01-13T17:01:04.887Z,41.42
2023-01-13T17:02:26.980Z,42.42
2023-01-13T17:03:49.581Z,41.28
2023-01-13T17:05:15.022Z,42.20
2023-01-13T17:06:41.324Z,41.50
2023-01-13T17:08:02.994Z,40.00
2023-01-13T17:09:27.503Z,35.90
2023-01-13T17:10:50.631Z,35.72
2023-01-13T17:12:12.774Z,32.13
2023-01-13T17:13:34.561Z,32.60
2023-01-13T17:14:56.620Z,29.30
2023-01-13T17:16:21.966Z,27.60
2023-01-13T17:17:47.491Z,25.67
2023-01-13T17:19:10.161Z,25.40
2023-01-13T17:20:32.017Z,28.00
2023-01-13T17:21:54.136Z,28.23
2023-01-13T17:23:16.042Z,32.67
2023-01-13T17:24:37.815Z,32.17
2023-01-13T17:25:59.340Z,29.58
2023-01-13T17:27:21.622Z,32.75
2023-01-13T17:28:46.328Z,35.03
2023-01-13T17:30:09.616Z,36.58
2023-01-13T17:31:31.979Z,37.45
2023-01-13T17:32:53.791Z,59.63
2023-01-13T17:34:15.520Z,42.60
2023-01-13T17:35:39.670Z,43.75
2023-01-13T17:37:01.228Z,63.35
2023-01-13T17:38:23.140Z,48.67
2023-01-13T17:39:48.363Z,60.70
2023-01-13T17:41:10.274Z,65.47
2023-01-13T17:42:32.308Z,63.13
2023-01-13T17:43:54.483Z,73.43
2023-01-13T17:45:16.597Z,73.07
2023-01-13T17:46:38.143Z,66.75
2023-01-13T17:48:00.250Z,58.28
2023-01-13T17:49:22.180Z,70.78
2023-01-13T17:50:48.093Z,61.35
2023-01-13T17:52:09.830Z,81.25
2023-01-13T17:53:31.729Z,68.13
2023-01-13T17:54:54.006Z,56.63
2023-01-13T17:56:17.087Z,61.75
2023-01-13T17:57:38.686Z,76.13
2023-01-13T17:59:00.726Z,101.53
2023-01-13T18:00:22.745Z,86.97
2023-01-13T18:01:44.971Z,78.25
2023-01-13T18:03:06.614Z,83.75
2023-01-13T18:04:28.678Z,112.88
2023-01-13T18:05:50.498Z,112.93
2023-01-13T18:07:12.539Z,105.00
2023-01-13T18:08:34.184Z,107.22
2023-01-13T18:09:56.114Z,119.28
2023-01-13T18:11:20.174Z,117.13
2023-01-13T18:12:42.101Z,120.20
2023-01-13T18:14:04.549Z,144.10
2023-01-13T18:15:26.584Z,132.35
2023-01-13T18:16:49.620Z,106.97
2023-01-13T18:18:11.329Z,120.80
2023-01-13T18:19:51.520Z,104.15
2023-01-13T18:21:49.873Z,95.63
2023-01-13T18:23:37.295Z,97.38
2023-01-13T18:25:18.108Z,99.75
2023-01-13T18:26:58.139Z,114.32
2023-01-13T18:28:19.845Z,116.15
2023-01-13T18:29:41.857Z,98.43
2023-01-13T18:31:03.588Z,99.95
2023-01-13T18:32:32.696Z,111.55
2023-01-13T18:33:55.006Z,101.82
2023-01-13T18:35:16.798Z,114.82
2023-01-13T18:36:39.119Z,109.15
2023-01-13T18:38:01.234Z,107.20
2023-01-13T18:39:22.951Z,94.15
2023-01-13T18:40:45.076Z,94.07
2023-01-13T18:42:27.123Z,86.35
2023-01-13T18:43:49.700Z,56.28
2023-01-13T18:45:11.504Z,51.33
2023-01-13T18:46:33.564Z,73.50
2023-01-13T18:47:58.166Z,39.75
2023-01-13T18:49:20.255Z,109.80
2023-01-13T18:50:41.939Z,71.35
2023-01-13T18:52:04.190Z,116.22
2023-01-13T18:53:25.969Z,108.32
2023-01-13T18:54:48.283Z,73.82
2023-01-13T18:56:14.185Z,81.13
2023-01-13T18:57:40.935Z,94.85
2023-01-13T18:59:03.382Z,84.68
2023-01-13T19:00:26.917Z,44.60
2023-01-13T19:01:49.234Z,44.38
2023-01-13T19:03:12.824Z,33.83
2023-01-13T19:04:36.065Z,26.80